createdAt,value
2018-08-24T00:00:20.979Z,996.82
2018-08-24T00:01:20.961Z,996.84
2018-08-24T00:02:20.946Z,996.80
2018-08-24T00:03:20.932Z,996.77
2018-08-24T00:04:20.913Z,996.77
2018-08-24T00:05:20.898Z,996.79
2018-08-24T00:06:20.882Z,996.82
2018-08-24T00:07:20.928Z,996.77
2018-08-24T00:08:20.844Z,996.82
2018-08-24T00:09:20.833Z,996.80
2018-08-24T00:10:20.812Z,996.85
2018-08-24T00:11:20.798Z,996.84
2018-08-24T00:12:20.781Z,996.85
2018-08-24T00:13:20.768Z,996.82
2018-08-24T00:14:20.749Z,996.84
2018-08-24T00:15:20.733Z,996.85
2018-08-24T00:16:20.715Z,996.81
2018-08-24T00:17:20.698Z,996.81
2018-08-24T00:18:20.683Z,996.79
2018-08-24T00:19:20.666Z,996.76
2018-08-24T00:20:20.653Z,996.75
2018-08-24T00:21:20.630Z,996.74
2018-08-24T00:22:20.618Z,996.78
2018-08-24T00:23:20.604Z,996.81
2018-08-24T00:24:20.581Z,996.90
2018-08-24T00:25:20.568Z,996.85
2018-08-24T00:26:20.550Z,996.90
2018-08-24T00:27:20.533Z,996.90
2018-08-24T00:28:20.517Z,996.94
2018-08-24T00:29:20.502Z,996.97
2018-08-24T00:30:20.483Z,996.94
2018-08-24T00:31:20.466Z,996.93
2018-08-24T00:32:20.450Z,996.94
2018-08-24T00:33:20.437Z,996.96
2018-08-24T00:34:20.414Z,996.99
2018-08-24T00:35:20.399Z,996.95
2018-08-24T00:36:20.380Z,996.97
2018-08-24T00:37:20.366Z,996.97
2018-08-24T00:38:20.349Z,996.97
2018-08-24T00:39:20.329Z,996.91
2018-08-24T00:40:20.312Z,996.90
2018-08-24T00:41:20.298Z,996.93
2018-08-24T00:42:20.321Z,996.94
2018-08-24T00:43:20.262Z,996.95
2018-08-24T00:44:20.244Z,996.93
2018-08-24T00:45:20.227Z,996.87
2018-08-24T00:46:20.209Z,996.86
2018-08-24T00:47:20.193Z,996.84
2018-08-24T00:48:20.175Z,996.83
2018-08-24T00:49:20.157Z,996.80
2018-08-24T00:50:20.142Z,996.79
2018-08-24T00:51:20.856Z,996.81
2018-08-24T00:52:20.103Z,996.79
2018-08-24T00:53:20.090Z,996.81
2018-08-24T00:54:20.074Z,996.83
2018-08-24T00:55:20.857Z,996.81
2018-08-24T00:56:20.033Z,996.76
2018-08-24T00:57:20.018Z,996.75
2018-08-24T00:58:20.001Z,996.79
2018-08-24T00:59:19.985Z,996.75
2018-08-24T01:00:19.964Z,996.74
2018-08-24T01:01:19.951Z,996.69
2018-08-24T01:02:19.931Z,996.66
2018-08-24T01:03:19.915Z,996.64
2018-08-24T01:04:19.889Z,996.65
2018-08-24T01:05:19.881Z,996.65
2018-08-24T01:06:19.865Z,996.65
2018-08-24T01:07:19.846Z,996.66
2018-08-24T01:08:19.828Z,996.69
2018-08-24T01:09:19.806Z,996.72
2018-08-24T01:10:19.791Z,996.68
2018-08-24T01:11:19.776Z,996.66
2018-08-24T01:12:19.759Z,996.68
2018-08-24T01:13:19.739Z,996.67
2018-08-24T01:14:19.723Z,996.67
2018-08-24T01:15:19.709Z,996.71
2018-08-24T01:16:19.688Z,996.71
2018-08-24T01:17:19.672Z,996.73
2018-08-24T01:18:19.655Z,996.73
2018-08-24T01:19:19.636Z,996.75
2018-08-24T01:20:19.617Z,996.75
2018-08-24T01:21:19.600Z,996.75
2018-08-24T01:22:19.582Z,996.78
2018-08-24T01:23:19.568Z,996.72
2018-08-24T01:24:19.548Z,996.77
2018-08-24T01:25:19.530Z,996.82
2018-08-24T01:26:19.515Z,996.81
2018-08-24T01:27:19.500Z,996.79
2018-08-24T01:28:19.482Z,996.77
2018-08-24T01:29:19.462Z,996.72
2018-08-24T01:30:19.462Z,996.67
2018-08-24T01:31:19.427Z,996.67
2018-08-24T01:32:19.410Z,996.63
2018-08-24T01:33:19.391Z,996.68
2018-08-24T01:34:19.376Z,996.65
2018-08-24T01:35:19.360Z,996.65
2018-08-24T01:36:19.340Z,996.67
2018-08-24T01:37:19.324Z,996.61
2018-08-24T01:38:19.303Z,996.58
2018-08-24T01:39:19.287Z,996.60
2018-08-24T01:40:19.278Z,996.57
2018-08-24T01:41:19.256Z,996.60
2018-08-24T01:42:19.236Z,996.59
2018-08-24T01:43:19.215Z,996.53
2018-08-24T01:44:19.202Z,996.54
2018-08-24T01:45:19.183Z,996.50
2018-08-24T01:46:19.164Z,996.53
2018-08-24T01:47:19.147Z,996.49
2018-08-24T01:48:19.130Z,996.50
2018-08-24T01:49:19.112Z,996.53
2018-08-24T01:50:19.095Z,996.52
2018-08-24T01:51:19.078Z,996.55
2018-08-24T01:52:19.059Z,996.56
2018-08-24T01:53:19.044Z,996.57
2018-08-24T01:54:19.026Z,996.57
2018-08-24T01:55:19.015Z,996.60
2018-08-24T01:56:18.990Z,996.63
2018-08-24T01:57:18.973Z,996.62
2018-08-24T01:58:18.954Z,996.66
2018-08-24T01:59:18.938Z,996.65
2018-08-24T02:00:18.918Z,996.62
2018-08-24T02:01:18.901Z,996.60
2018-08-24T02:02:18.882Z,996.60
2018-08-24T02:03:18.866Z,996.60
2018-08-24T02:04:18.849Z,996.58
2018-08-24T02:05:18.833Z,996.58
2018-08-24T02:06:18.817Z,996.58
2018-08-24T02:07:18.795Z,996.55
2018-08-24T02:08:18.775Z,996.67
2018-08-24T02:09:18.767Z,996.65
2018-08-24T02:10:18.750Z,996.65
2018-08-24T02:11:18.722Z,996.64
2018-08-24T02:12:18.703Z,996.66
2018-08-24T02:13:18.691Z,996.69
2018-08-24T02:14:18.703Z,996.74
2018-08-24T02:15:18.678Z,996.68
2018-08-24T02:16:18.631Z,996.67
2018-08-24T02:17:18.619Z,996.67
2018-08-24T02:18:18.601Z,996.65
2018-08-24T02:19:18.582Z,996.63
2018-08-24T02:20:18.565Z,996.63
2018-08-24T02:21:18.558Z,996.65
2018-08-24T02:22:18.530Z,996.64
2018-08-24T02:23:18.514Z,996.62
2018-08-24T02:24:18.495Z,996.57
2018-08-24T02:25:18.478Z,996.59
2018-08-24T02:26:18.459Z,996.61
2018-08-24T02:27:18.457Z,996.55
2018-08-24T02:28:18.423Z,996.57
2018-08-24T02:29:18.407Z,996.57
2018-08-24T02:30:18.388Z,996.57
2018-08-24T02:31:18.418Z,996.54
2018-08-24T02:32:18.352Z,996.56
2018-08-24T02:33:18.332Z,996.54
2018-08-24T02:34:18.318Z,996.55
2018-08-24T02:35:18.298Z,996.57
2018-08-24T02:36:18.281Z,996.56
2018-08-24T02:37:18.261Z,996.61
2018-08-24T02:38:18.248Z,996.60
2018-08-24T02:39:18.225Z,996.58
2018-08-24T02:40:18.214Z,996.60
2018-08-24T02:41:18.189Z,996.59
2018-08-24T02:42:18.257Z,996.55
2018-08-24T02:43:18.156Z,996.52
2018-08-24T02:44:18.153Z,996.50
2018-08-24T02:45:18.119Z,996.48
2018-08-24T02:46:18.104Z,996.47
2018-08-24T02:47:18.085Z,996.49
2018-08-24T02:48:18.065Z,996.47
2018-08-24T02:49:18.047Z,996.45
2018-08-24T02:50:18.033Z,996.43
2018-08-24T02:51:18.011Z,996.47
2018-08-24T02:52:17.990Z,996.43
2018-08-24T02:53:17.974Z,996.43
2018-08-24T02:54:17.958Z,996.41
2018-08-24T02:55:17.946Z,996.44
2018-08-24T02:56:17.920Z,996.48
2018-08-24T02:57:17.901Z,996.51
2018-08-24T02:58:17.886Z,996.47
2018-08-24T02:59:17.872Z,996.51
2018-08-24T03:00:17.846Z,996.49
2018-08-24T03:01:17.831Z,996.52
2018-08-24T03:02:17.804Z,996.50
2018-08-24T03:03:17.795Z,996.46
2018-08-24T03:04:17.777Z,996.44
2018-08-24T03:05:17.861Z,996.45
2018-08-24T03:06:17.743Z,996.41
2018-08-24T03:07:17.722Z,996.41
2018-08-24T03:08:17.743Z,996.41
2018-08-24T03:09:17.722Z,996.40
2018-08-24T03:10:17.669Z,996.39
2018-08-24T03:11:17.647Z,996.44
2018-08-24T03:12:17.640Z,996.42
2018-08-24T03:13:17.613Z,996.38
2018-08-24T03:14:17.594Z,996.39
2018-08-24T03:15:17.574Z,996.41
2018-08-24T03:16:17.571Z,996.40
2018-08-24T03:17:17.542Z,996.46
2018-08-24T03:18:17.523Z,996.44
2018-08-24T03:19:17.504Z,996.42
2018-08-24T03:20:17.487Z,996.43
2018-08-24T03:21:17.514Z,996.44
2018-08-24T03:22:17.452Z,996.42
2018-08-24T03:23:17.432Z,996.46
2018-08-24T03:24:17.411Z,996.47
2018-08-24T03:25:17.396Z,996.50
2018-08-24T03:26:17.379Z,996.51
2018-08-24T03:27:17.358Z,996.53
2018-08-24T03:28:17.340Z,996.54
2018-08-24T03:29:17.323Z,996.59
2018-08-24T03:30:17.305Z,996.58
2018-08-24T03:31:17.288Z,996.58
2018-08-24T03:32:17.273Z,996.63
2018-08-24T03:33:19.902Z,996.58
2018-08-24T03:34:17.235Z,996.56
2018-08-24T03:35:17.216Z,996.56
2018-08-24T03:36:17.194Z,996.52
2018-08-24T03:37:17.179Z,996.54
2018-08-24T03:38:17.160Z,996.51
2018-08-24T03:39:17.142Z,996.53
2018-08-24T03:40:17.125Z,996.56
2018-08-24T03:41:17.106Z,996.56
2018-08-24T03:42:17.087Z,996.58
2018-08-24T03:43:17.072Z,996.59
2018-08-24T03:44:17.710Z,996.56
2018-08-24T03:45:17.033Z,996.53
2018-08-24T03:46:17.016Z,996.53
2018-08-24T03:47:16.998Z,996.57
2018-08-24T03:48:16.979Z,996.58
2018-08-24T03:49:16.963Z,996.57
2018-08-24T03:50:16.944Z,996.53
2018-08-24T03:51:16.929Z,996.53
2018-08-24T03:52:16.908Z,996.55
2018-08-24T03:53:16.900Z,996.60
2018-08-24T03:54:16.872Z,996.59
2018-08-24T03:55:16.854Z,996.56
2018-08-24T03:56:16.836Z,996.57
2018-08-24T03:57:16.834Z,996.58
2018-08-24T03:58:16.800Z,996.60
2018-08-24T03:59:16.795Z,996.61
2018-08-24T04:00:16.767Z,996.61
2018-08-24T04:01:16.742Z,996.61
2018-08-24T04:02:16.728Z,996.65
2018-08-24T04:03:16.706Z,996.65
2018-08-24T04:04:16.695Z,996.63
2018-08-24T04:05:16.679Z,996.64
2018-08-24T04:06:16.663Z,996.68
2018-08-24T04:07:16.653Z,996.74
2018-08-24T04:08:16.615Z,996.68
2018-08-24T04:09:16.604Z,996.74
2018-08-24T04:10:16.592Z,996.69
2018-08-24T04:11:16.569Z,996.77
2018-08-24T04:12:16.546Z,996.73
2018-08-24T04:13:16.528Z,996.73
2018-08-24T04:14:16.515Z,996.75
2018-08-24T04:15:16.495Z,996.76
2018-08-24T04:16:16.481Z,996.77
2018-08-24T04:17:16.454Z,996.72
2018-08-24T04:18:16.434Z,996.70
2018-08-24T04:19:16.440Z,996.72
2018-08-24T04:20:16.401Z,996.73
2018-08-24T04:21:16.385Z,996.74
2018-08-24T04:22:16.367Z,996.72
2018-08-24T04:23:16.350Z,996.75
2018-08-24T04:24:16.331Z,996.75
2018-08-24T04:25:16.312Z,996.74
2018-08-24T04:26:16.297Z,996.74
2018-08-24T04:27:16.278Z,996.73
2018-08-24T04:28:16.258Z,996.78
2018-08-24T04:33:55.502Z,996.78
2018-08-24T04:34:55.507Z,996.76
2018-08-24T04:35:55.456Z,996.79
2018-08-24T04:36:55.441Z,996.80
2018-08-24T04:37:55.425Z,996.80
2018-08-24T04:38:55.400Z,996.79
2018-08-24T04:39:55.385Z,996.79
2018-08-24T04:40:55.365Z,996.76
2018-08-24T04:41:55.347Z,996.81
2018-08-24T04:42:55.329Z,996.77
2018-08-24T04:48:36.073Z,996.81
2018-08-24T04:49:34.537Z,996.82
2018-08-24T04:50:35.109Z,996.79
2018-08-24T04:53:16.048Z,996.87
2018-08-24T04:54:07.583Z,996.89
2018-08-24T04:56:53.217Z,996.88
2018-08-24T04:57:40.638Z,996.84
2018-08-24T04:58:40.616Z,996.83
2018-08-24T04:59:40.598Z,996.85
2018-08-24T05:00:40.577Z,996.84
2018-08-24T05:01:40.564Z,996.81
2018-08-24T05:02:40.548Z,996.83
2018-08-24T05:03:40.518Z,996.79
2018-08-24T05:04:40.512Z,996.80
2018-08-24T05:05:40.595Z,996.83
2018-08-24T05:06:40.503Z,996.84
2018-08-24T05:07:40.454Z,996.83
2018-08-24T05:08:40.439Z,996.83
2018-08-24T05:09:40.420Z,996.80
2018-08-24T05:10:40.400Z,996.80
2018-08-24T05:11:40.394Z,996.84
2018-08-24T05:12:40.377Z,996.84
2018-08-24T05:13:40.346Z,996.85
2018-08-24T05:14:40.358Z,996.86
2018-08-24T05:15:40.333Z,996.83
2018-08-24T05:16:40.293Z,996.87
2018-08-24T05:17:40.280Z,996.85
2018-08-24T05:18:40.278Z,996.89
2018-08-24T05:19:40.240Z,996.90
2018-08-24T05:20:40.221Z,996.91
2018-08-24T05:21:40.205Z,996.91
2018-08-24T05:22:40.187Z,996.92
2018-08-24T05:23:40.168Z,996.90
2018-08-24T05:24:40.155Z,996.93
2018-08-24T05:25:40.144Z,996.92
2018-08-24T05:26:40.110Z,996.92
2018-08-24T05:27:40.148Z,996.97
2018-08-24T05:28:40.076Z,996.91
2018-08-24T05:29:40.067Z,996.94
2018-08-24T05:30:40.054Z,996.95
2018-08-24T05:31:40.032Z,996.92
2018-08-24T05:32:40.025Z,996.92
2018-08-24T05:33:39.984Z,996.93
2018-08-24T05:34:39.996Z,996.91
2018-08-24T05:35:39.985Z,996.90
2018-08-24T05:36:39.934Z,996.87
2018-08-24T05:37:39.918Z,996.91
2018-08-24T05:38:39.911Z,996.95
2018-08-24T05:39:39.876Z,996.94
2018-08-24T05:40:39.864Z,996.96
2018-08-24T05:41:39.839Z,996.97
2018-08-24T05:42:39.829Z,996.95
2018-08-24T05:43:39.811Z,996.99
2018-08-24T05:44:39.781Z,996.96
2018-08-24T05:45:39.769Z,997.01
2018-08-24T05:46:39.768Z,997.05
2018-08-24T05:47:39.769Z,997.04
2018-08-24T05:48:39.766Z,997.07
2018-08-24T05:49:39.690Z,997.09
2018-08-24T05:50:39.693Z,997.12
2018-08-24T05:51:39.661Z,997.12
2018-08-24T05:52:39.643Z,997.09
2018-08-24T05:53:39.634Z,997.08
2018-08-24T05:54:39.620Z,997.10
2018-08-24T05:55:39.757Z,997.12
2018-08-24T05:56:39.566Z,997.18
2018-08-24T05:57:39.581Z,997.11
2018-08-24T05:58:39.557Z,997.12
2018-08-24T05:59:39.523Z,997.13
2018-08-24T06:00:39.524Z,997.10
2018-08-24T06:01:39.502Z,997.12
2018-08-24T06:02:39.470Z,997.17
2018-08-24T06:03:39.468Z,997.12
2018-08-24T06:04:39.478Z,997.14
2018-08-24T06:05:39.455Z,997.14
2018-08-24T06:06:39.399Z,997.12
2018-08-24T06:07:39.384Z,997.17
2018-08-24T06:10:39.528Z,997.14
2018-08-24T06:14:18.612Z,997.13
2018-08-24T06:15:18.590Z,997.12
2018-08-24T06:16:18.561Z,997.10
2018-08-24T06:17:18.540Z,997.13
2018-08-24T06:18:18.534Z,997.11
2018-08-24T06:19:18.525Z,997.12
2018-08-24T06:20:18.495Z,997.14
2018-08-24T06:21:18.481Z,997.17
2018-08-24T06:22:18.459Z,997.16
2018-08-24T06:23:18.464Z,997.15
2018-08-24T06:24:18.455Z,997.17
2018-08-24T06:25:18.425Z,997.17
2018-08-24T06:26:18.392Z,997.13
2018-08-24T06:27:18.367Z,997.13
2018-08-24T06:28:18.344Z,997.15
2018-08-24T06:29:18.333Z,997.17
2018-08-24T06:30:18.308Z,997.18
2018-08-24T06:31:18.294Z,997.20
2018-08-24T06:32:18.274Z,997.25
2018-08-24T06:33:18.291Z,997.27
2018-08-24T06:34:18.266Z,997.28
2018-08-24T06:35:18.231Z,997.28
2018-08-24T06:36:18.201Z,997.28
2018-08-24T06:37:18.222Z,997.28
2018-08-24T06:38:18.170Z,997.29
2018-08-24T06:39:18.148Z,997.32
2018-08-24T06:40:18.170Z,997.33
2018-08-24T06:41:18.114Z,997.38
2018-08-24T06:42:18.135Z,997.38
2018-08-24T06:43:18.094Z,997.35
2018-08-24T06:44:18.064Z,997.36
2018-08-24T06:45:18.062Z,997.34
2018-08-24T06:46:18.029Z,997.39
2018-08-24T06:47:18.080Z,997.36
2018-08-24T06:48:17.985Z,997.34
2018-08-24T06:49:17.968Z,997.34
2018-08-24T06:50:17.957Z,997.37
2018-08-24T06:51:17.965Z,997.38
2018-08-24T06:52:17.921Z,997.35
2018-08-24T06:53:18.131Z,997.36
2018-08-24T06:54:17.903Z,997.39
2018-08-24T06:55:17.915Z,997.37
2018-08-24T06:56:17.855Z,997.35
2018-08-24T06:57:17.890Z,997.37
2018-08-24T06:58:17.839Z,997.36
2018-08-24T06:59:17.822Z,997.41
2018-08-24T07:00:17.775Z,997.40
2018-08-24T07:01:17.757Z,997.44
2018-08-24T07:02:17.741Z,997.45
2018-08-24T07:03:17.716Z,997.45
2018-08-24T07:04:17.718Z,997.37
2018-08-24T07:05:17.683Z,997.42
2018-08-24T07:06:17.676Z,997.47
2018-08-24T07:07:17.670Z,997.45
2018-08-24T07:08:17.625Z,997.49
2018-08-24T07:09:17.613Z,997.48
2018-08-24T07:10:17.631Z,997.53
2018-08-24T07:11:17.577Z,997.53
2018-08-24T07:12:17.557Z,997.56
2018-08-24T07:13:17.537Z,997.52
2018-08-24T07:14:17.518Z,997.54
2018-08-24T07:15:17.497Z,997.56
2018-08-24T07:16:17.483Z,997.60
2018-08-24T07:17:17.475Z,997.64
2018-08-24T07:18:17.447Z,997.65
2018-08-24T07:19:17.432Z,997.65
2018-08-24T07:20:17.420Z,997.69
2018-08-24T07:21:17.402Z,997.69
2018-08-24T07:22:17.372Z,997.70
2018-08-24T07:23:17.359Z,997.72
2018-08-24T07:24:17.347Z,997.73
2018-08-24T07:25:17.344Z,997.75
2018-08-24T07:26:17.321Z,997.76
2018-08-24T07:27:17.291Z,997.78
2018-08-24T07:28:17.267Z,997.77
2018-08-24T07:29:17.247Z,997.79
2018-08-24T07:30:17.242Z,997.83
2018-08-24T07:31:17.224Z,997.82
2018-08-24T07:32:17.193Z,997.84
2018-08-24T07:33:17.175Z,997.80
2018-08-24T07:34:17.164Z,997.79
2018-08-24T07:35:17.154Z,997.83
2018-08-24T07:36:17.196Z,997.84
2018-08-24T07:37:17.143Z,997.87
2018-08-24T07:38:17.184Z,997.90
2018-08-24T07:39:17.127Z,997.90
2018-08-24T07:40:17.083Z,997.87
2018-08-24T07:41:17.120Z,997.89
2018-08-24T07:42:17.011Z,997.93
2018-08-24T07:43:17.000Z,997.95
2018-08-24T07:44:17.016Z,998.00
2018-08-24T07:45:16.992Z,998.00
2018-08-24T07:46:16.947Z,998.00
2018-08-24T07:47:16.930Z,998.02
2018-08-24T07:48:16.910Z,997.99
2018-08-24T07:49:16.906Z,997.92
2018-08-24T07:50:16.877Z,997.97
2018-08-24T07:51:16.853Z,997.95
2018-08-24T07:52:16.853Z,997.96
2018-08-24T07:53:16.822Z,997.96
2018-08-24T07:54:16.806Z,998.01
2018-08-24T07:55:16.785Z,998.06
2018-08-24T07:56:16.765Z,998.03
2018-08-24T07:57:16.752Z,998.06
2018-08-24T07:58:16.731Z,998.01
2018-08-24T07:59:16.715Z,997.96
2018-08-24T08:00:16.700Z,997.99
2018-08-24T08:01:16.707Z,998.01
2018-08-24T08:02:16.692Z,998.03
2018-08-24T08:03:16.650Z,998.04
2018-08-24T08:04:16.620Z,998.07
2018-08-24T08:05:16.650Z,998.02
2018-08-24T08:06:16.590Z,998.05
2018-08-24T08:07:16.563Z,998.05
2018-08-24T08:08:16.555Z,998.04
2018-08-24T08:09:16.543Z,998.10
2018-08-24T08:10:16.545Z,998.15
2018-08-24T08:11:16.512Z,998.17
2018-08-24T08:12:16.491Z,998.20
2018-08-24T08:13:16.477Z,998.19
2018-08-24T08:14:16.462Z,998.25
2018-08-24T08:15:16.467Z,998.25
2018-08-24T08:16:16.432Z,998.20
2018-08-24T08:17:16.407Z,998.23
2018-08-24T08:18:16.426Z,998.28
2018-08-24T08:19:16.350Z,998.29
2018-08-24T08:20:16.328Z,998.29
2018-08-24T08:21:16.327Z,998.31
2018-08-24T08:22:16.384Z,998.32
2018-08-24T08:23:16.315Z,998.29
2018-08-24T08:24:16.262Z,998.30
2018-08-24T08:25:16.244Z,998.31
2018-08-24T08:26:16.239Z,998.37
2018-08-24T08:27:16.222Z,998.35
2018-08-24T08:28:16.196Z,998.34
2018-08-24T08:29:16.175Z,998.33
2018-08-24T08:30:16.158Z,998.33
2018-08-24T08:31:16.140Z,998.34
2018-08-24T08:32:16.117Z,998.35
2018-08-24T08:33:16.101Z,998.36
2018-08-24T08:34:16.083Z,998.34
2018-08-24T08:35:16.063Z,998.42
2018-08-24T08:36:16.056Z,998.42
2018-08-24T08:37:16.024Z,998.36
2018-08-24T08:38:16.011Z,998.44
2018-08-24T08:39:15.987Z,998.42
2018-08-24T08:40:15.974Z,998.44
2018-08-24T08:41:15.951Z,998.46
2018-08-24T08:42:15.942Z,998.48
2018-08-24T08:50:07.317Z,998.63
2018-08-24T08:50:28.214Z,998.67
2018-08-24T08:51:28.192Z,998.71
2018-08-24T08:52:28.177Z,998.66
2018-08-24T08:53:28.182Z,998.64
2018-08-24T08:54:28.134Z,998.68
2018-08-24T08:55:28.122Z,998.64
2018-08-24T08:56:28.107Z,998.71
2018-08-24T08:57:28.128Z,998.75
2018-08-24T08:58:28.069Z,998.78
2018-08-24T08:59:28.049Z,998.75
2018-08-24T09:00:28.034Z,998.72
2018-08-24T09:01:28.016Z,998.80
2018-08-24T09:02:27.999Z,998.77
2018-08-24T09:03:27.981Z,998.75
2018-08-24T09:04:27.962Z,998.77
2018-08-24T09:05:27.953Z,998.83
2018-08-24T09:06:27.999Z,998.77
2018-08-24T09:07:27.947Z,998.80
2018-08-24T09:08:27.912Z,998.77
2018-08-24T09:09:27.875Z,998.80
2018-08-24T09:10:27.856Z,998.76
2018-08-24T09:11:27.845Z,998.85
2018-08-24T09:12:27.835Z,998.82
2018-08-24T09:13:27.811Z,998.85
2018-08-24T09:14:27.814Z,998.88
2018-08-24T09:15:27.785Z,998.84
2018-08-24T09:16:27.753Z,998.83
2018-08-24T09:17:27.738Z,998.82
2018-08-24T09:18:27.762Z,998.86
2018-08-24T09:19:27.704Z,998.85
2018-08-24T09:20:27.728Z,998.83
2018-08-24T09:21:27.688Z,998.87
2018-08-24T09:22:27.668Z,998.87
2018-08-24T09:23:27.667Z,998.87
2018-08-24T09:24:27.653Z,998.88
2018-08-24T09:25:27.742Z,998.88
2018-08-24T09:26:27.585Z,998.86
2018-08-24T09:27:27.605Z,998.85
2018-08-24T09:28:27.563Z,998.88
2018-08-24T09:29:27.540Z,998.86
2018-08-24T09:30:27.525Z,998.89
2018-08-24T09:31:27.506Z,998.99
2018-08-24T09:32:27.527Z,998.85
2018-08-24T09:33:27.502Z,998.87
2018-08-24T09:34:27.464Z,998.90
2018-08-24T09:35:27.438Z,998.95
2018-08-24T09:36:27.423Z,998.95
2018-08-24T09:37:27.405Z,998.88
2018-08-24T09:38:27.405Z,998.98
2018-08-24T09:39:27.381Z,998.94
2018-08-24T09:40:27.358Z,998.92
2018-08-24T09:41:27.335Z,998.95
2018-08-24T09:42:27.326Z,998.92
2018-08-24T09:43:27.311Z,998.99
2018-08-24T09:44:27.298Z,998.96
2018-08-24T09:45:27.275Z,998.94
2018-08-24T09:46:27.256Z,998.97
2018-08-24T09:47:27.273Z,998.96
2018-08-24T09:48:27.242Z,999.00
2018-08-24T09:49:27.207Z,999.01
2018-08-24T09:50:27.190Z,999.00
2018-08-24T09:51:27.174Z,999.03
2018-08-24T09:52:27.160Z,999.00
2018-08-24T09:53:27.139Z,998.98
2018-08-24T09:54:27.134Z,999.00
2018-08-24T09:55:27.145Z,999.02
2018-08-24T09:56:27.097Z,999.01
2018-08-24T09:57:27.128Z,999.02
2018-08-24T09:58:27.100Z,999.01
2018-08-24T09:59:27.043Z,998.99
2018-08-24T10:00:27.067Z,999.07
2018-08-24T10:01:27.011Z,999.04
2018-08-24T10:02:27.002Z,999.03
2018-08-24T10:03:26.977Z,999.05
2018-08-24T10:04:26.972Z,999.07
2018-08-24T10:05:26.953Z,999.10
2018-08-24T10:06:26.997Z,999.08
2018-08-24T10:07:26.916Z,999.08
2018-08-24T10:08:26.913Z,999.07
2018-08-24T10:09:26.886Z,999.00
2018-08-24T10:10:26.871Z,999.05
2018-08-24T10:11:26.850Z,998.99
2018-08-24T10:12:26.843Z,999.00
2018-08-24T10:13:26.921Z,999.04
2018-08-24T10:14:26.806Z,999.03
2018-08-24T10:15:26.815Z,998.99
2018-08-24T10:16:26.769Z,999.01
2018-08-24T10:17:26.751Z,999.01
2018-08-24T10:18:26.769Z,999.02
2018-08-24T10:19:26.751Z,999.01
2018-08-24T10:20:26.698Z,999.05
2018-08-24T10:21:26.687Z,999.00
2018-08-24T10:22:26.691Z,999.02
2018-08-24T10:23:26.650Z,998.98
2018-08-24T10:24:26.651Z,998.97
2018-08-24T10:25:26.613Z,998.98
2018-08-24T10:26:26.593Z,999.02
2018-08-24T10:27:26.605Z,998.97
2018-08-24T10:28:26.587Z,998.90
2018-08-24T10:29:26.691Z,998.97
2018-08-24T10:30:26.569Z,998.92
2018-08-24T10:31:26.529Z,998.87
2018-08-24T10:32:26.522Z,998.93
2018-08-24T10:33:26.484Z,998.85
2018-08-24T10:34:26.465Z,998.88
2018-08-24T10:35:26.481Z,998.90
2018-08-24T10:36:26.438Z,998.91
2018-08-24T10:37:26.415Z,998.90
2018-08-24T10:38:26.411Z,998.89
2018-08-24T10:39:26.417Z,998.94
2018-08-24T10:40:26.377Z,998.99
2018-08-24T10:41:26.357Z,998.91
2018-08-24T10:42:26.339Z,998.90
2018-08-24T10:43:26.315Z,998.87
2018-08-24T10:44:26.296Z,998.89
2018-08-24T10:45:26.286Z,998.92
2018-08-24T10:46:26.275Z,998.95
2018-08-24T10:47:26.262Z,998.96
2018-08-24T10:48:26.233Z,998.93
2018-08-24T10:49:26.285Z,998.97
2018-08-24T10:50:26.225Z,998.98
2018-08-24T10:51:26.182Z,998.98
2018-08-24T10:52:26.165Z,998.92
2018-08-24T10:53:26.153Z,998.93
2018-08-24T10:54:26.146Z,998.94
2018-08-24T10:55:26.132Z,998.93
2018-08-24T10:56:26.126Z,998.96
2018-08-24T10:57:26.079Z,998.95
2018-08-24T10:58:26.084Z,998.82
2018-08-24T10:59:26.070Z,998.93
2018-08-24T11:00:26.070Z,998.97
2018-08-24T11:01:26.037Z,998.91
2018-08-24T11:02:26.011Z,998.97
2018-08-24T11:03:25.983Z,999.06
2018-08-24T11:04:26.000Z,998.99
2018-08-24T11:05:26.011Z,998.99
2018-08-24T11:06:25.931Z,999.03
2018-08-24T11:07:26.039Z,999.03
2018-08-24T11:08:25.912Z,999.01
2018-08-24T11:09:25.889Z,998.97
2018-08-24T11:10:25.878Z,998.96
2018-08-24T11:11:25.848Z,998.98
2018-08-24T11:12:25.838Z,999.01
2018-08-24T11:13:25.830Z,999.03
2018-08-24T11:14:25.806Z,999.04
2018-08-24T11:15:27.085Z,999.06
2018-08-24T11:16:25.806Z,999.03
2018-08-24T11:17:25.762Z,999.00
2018-08-24T11:18:25.739Z,999.03
2018-08-24T11:19:25.715Z,999.02
2018-08-24T11:20:25.714Z,999.04
2018-08-24T11:21:25.739Z,999.02
2018-08-24T11:22:25.769Z,998.97
2018-08-24T11:23:25.659Z,999.03
2018-08-24T11:24:25.636Z,999.02
2018-08-24T11:25:25.622Z,998.98
2018-08-24T11:26:25.607Z,998.99
2018-08-24T11:27:26.216Z,999.02
2018-08-24T11:28:25.629Z,999.06
2018-08-24T11:29:25.675Z,999.05
2018-08-24T11:30:25.565Z,999.07
2018-08-24T11:31:25.679Z,999.04
2018-08-24T11:32:25.522Z,999.06
2018-08-24T11:33:25.493Z,999.02
2018-08-24T11:34:25.479Z,999.07
2018-08-24T11:35:25.458Z,999.00
2018-08-24T11:36:25.498Z,999.00
2018-08-24T11:37:25.456Z,999.04
2018-08-24T11:38:25.441Z,999.02
2018-08-24T11:39:25.431Z,998.97
2018-08-24T11:40:25.388Z,998.98
2018-08-24T11:41:25.369Z,999.01
2018-08-24T11:42:25.351Z,998.98
2018-08-24T11:43:25.342Z,998.99
2018-08-24T11:44:25.332Z,999.01
2018-08-24T11:45:25.310Z,998.96
2018-08-24T11:46:25.329Z,999.02
2018-08-24T11:47:25.292Z,998.98
2018-08-24T11:48:25.401Z,999.02
2018-08-24T11:49:25.234Z,999.05
2018-08-24T11:50:25.222Z,999.01
2018-08-24T11:51:25.208Z,999.03
2018-08-24T11:52:25.181Z,998.98
2018-08-24T11:53:25.175Z,999.00
2018-08-24T11:54:25.167Z,999.08
2018-08-24T11:55:25.137Z,999.06
2018-08-24T11:56:25.132Z,999.07
2018-08-24T11:57:25.109Z,999.08
2018-08-24T11:58:25.101Z,999.08
2018-08-24T11:59:25.074Z,999.08
2018-08-24T12:00:25.057Z,999.06
2018-08-24T12:01:25.039Z,999.15
2018-08-24T12:02:25.041Z,999.10
2018-08-24T12:03:25.025Z,999.06
2018-08-24T12:04:24.993Z,999.06
2018-08-24T12:05:25.279Z,999.07
2018-08-24T12:06:24.968Z,999.02
2018-08-24T12:07:24.954Z,999.04
2018-08-24T12:08:25.018Z,999.11
2018-08-24T12:09:24.937Z,999.08
2018-08-24T12:10:24.900Z,999.05
2018-08-24T12:11:24.890Z,999.04
2018-08-24T12:12:24.915Z,999.01
2018-08-24T12:13:24.950Z,998.98
2018-08-24T12:14:24.832Z,998.97
2018-08-24T12:15:24.841Z,999.02
2018-08-24T12:16:24.805Z,998.99
2018-08-24T12:17:24.787Z,998.95
2018-08-24T12:18:24.873Z,998.97
2018-08-24T12:19:24.748Z,999.03
2018-08-24T12:20:24.735Z,999.04
2018-08-24T12:21:24.839Z,998.97
2018-08-24T12:22:24.714Z,998.95
2018-08-24T12:23:24.684Z,998.99
2018-08-24T12:24:24.692Z,998.98
2018-08-24T12:25:24.666Z,998.98
2018-08-24T12:26:24.641Z,998.94
2018-08-24T12:27:24.705Z,998.91
2018-08-24T12:28:24.621Z,998.93
2018-08-24T12:29:24.598Z,998.99
2018-08-24T12:30:24.604Z,998.90
2018-08-24T12:31:24.559Z,998.97
2018-08-24T12:32:24.544Z,999.00
2018-08-24T12:33:24.530Z,998.96
2018-08-24T12:34:24.530Z,998.94
2018-08-24T12:35:24.509Z,999.01
2018-08-24T12:36:24.485Z,998.98
2018-08-24T12:37:24.482Z,998.96
2018-08-24T12:38:24.470Z,999.01
2018-08-24T12:39:24.443Z,998.96
2018-08-24T12:40:24.460Z,999.01
2018-08-24T12:41:24.527Z,998.99
2018-08-24T12:42:24.410Z,999.07
2018-08-24T12:43:24.395Z,999.04
2018-08-24T12:44:24.359Z,999.02
2018-08-24T12:45:24.337Z,998.99
2018-08-24T12:46:24.323Z,999.00
2018-08-24T12:47:24.329Z,999.01
2018-08-24T12:48:24.310Z,999.01
2018-08-24T12:49:24.355Z,998.96
2018-08-24T12:50:24.264Z,998.94
2018-08-24T12:51:24.288Z,999.00